Time;durP1;ratioP1;P1;durP2;ratioP2;P2;SDS_P1;SDS_P2;PMS_P1;PMS_P2;Temp;Humidity;BMP_temperature;BMP_pressure;BME280_temperature;BME280_humidity;BME280_pressure;Samples;Min_cycle;Max_cycle;Signal;HPM_P1;HPM_P2
2022/04/15 00:01:24;;;;;;;24.35;9.57;;;20.60;54.10;;;;;;5077705;28;20056;-71
2022/04/15 00:03:52;;;;;;;20.88;9.30;;;20.70;54.60;;;;;;5077397;28;20041;-71
2022/04/15 00:06:21;;;;;;;17.13;9.10;;;20.50;54.80;;;;;;5063064;28;20041;-71
2022/04/15 00:08:47;;;;;;;22.33;9.85;;;20.50;55.00;;;;;;5058985;28;20048;-71
2022/04/15 00:11:14;;;;;;;15.57;9.65;;;20.50;55.20;;;;;;5078357;28;20055;-71
2022/04/15 00:13:41;;;;;;;16.92;8.55;;;20.40;55.30;;;;;;5077107;28;20029;-71
2022/04/15 00:16:08;;;;;;;21.27;9.30;;;20.50;55.60;;;;;;5078763;28;20037;-71
2022/04/15 00:18:36;;;;;;;22.67;10.85;;;20.40;55.60;;;;;;5079014;28;20044;-71
2022/04/15 00:21:05;;;;;;;22.77;12.45;;;20.50;55.80;;;;;;5078823;28;20029;-71
2022/04/15 00:23:32;;;;;;;22.70;11.40;;;20.50;55.90;;;;;;5078905;28;20048;-71
2022/04/15 00:25:59;;;;;;;18.77;10.98;;;20.50;56.00;;;;;;5076341;28;20037;-71
2022/04/15 00:28:25;;;;;;;22.33;9.52;;;20.40;55.90;;;;;;5074035;28;20037;-71
2022/04/15 00:30:51;;;;;;;19.10;10.95;;;20.30;55.90;;;;;;5062279;28;20032;-71
2022/04/15 00:33:17;;;;;;;16.38;9.63;;;20.40;56.00;;;;;;5069093;28;20052;-71
2022/04/15 00:35:44;;;;;;;20.77;10.65;;;20.30;56.10;;;;;;5078361;28;20064;-70
2022/04/15 00:38:11;;;;;;;17.98;9.75;;;20.40;56.20;;;;;;5078565;28;20033;-71
2022/04/15 00:40:37;;;;;;;20.83;9.70;;;20.30;56.70;;;;;;5076192;28;20059;-71
2022/04/15 00:43:03;;;;;;;12.68;7.85;;;20.30;56.70;;;;;;5078592;28;20041;-71
2022/04/15 00:45:30;;;;;;;15.45;9.50;;;20.40;56.70;;;;;;5092633;28;20047;-71
2022/04/15 00:47:58;;;;;;;16.77;8.80;;;20.40;56.60;;;;;;5098381;28;20064;-71
2022/04/15 00:50:35;;;;;;;18.02;8.57;;;20.40;56.50;;;;;;5079362;28;20045;-71
2022/04/15 00:53:08;;;;;;;16.60;8.88;;;20.40;56.60;;;;;;5078409;28;20092;-71
2022/04/15 00:55:34;;;;;;;17.98;9.68;;;20.50;56.60;;;;;;5072333;28;20096;-71
2022/04/15 00:58:02;;;;;;;15.43;8.68;;;20.50;56.60;;;;;;5058174;28;20061;-71
2022/04/15 01:00:30;;;;;;;14.85;8.32;;;20.40;56.50;;;;;;5059020;28;20061;-71
2022/04/15 01:02:58;;;;;;;20.13;7.53;;;20.40;56.50;;;;;;5077790;28;20067;-71
2022/04/15 01:05:25;;;;;;;21.20;8.98;;;20.60;56.50;;;;;;5060487;28;20037;-71
2022/04/15 01:07:55;;;;;;;19.75;8.90;;;20.70;56.50;;;;;;5077293;28;20051;-70
2022/04/15 01:10:23;;;;;;;14.05;8.13;;;20.60;56.40;;;;;;5076104;28;20052;-71
2022/04/15 01:12:54;;;;;;;22.20;9.30;;;20.60;56.40;;;;;;5077801;28;20053;-70
2022/04/15 01:15:22;;;;;;;18.80;9.20;;;20.60;56.30;;;;;;5077503;28;20124;-71
2022/04/15 01:17:49;;;;;;;19.90;8.50;;;20.70;56.30;;;;;;5076033;28;20029;-71
2022/04/15 01:20:15;;;;;;;19.70;8.48;;;20.70;56.30;;;;;;5076128;28;20079;-70
2022/04/15 01:22:47;;;;;;;16.05;10.10;;;20.60;56.20;;;;;;5076419;28;20052;-70
2022/04/15 01:25:16;;;;;;;16.73;9.27;;;20.70;56.30;;;;;;5074139;28;20044;-71
2022/04/15 01:27:44;;;;;;;16.92;9.82;;;20.70;56.20;;;;;;5066635;28;20045;-71
2022/04/15 01:30:16;;;;;;;23.63;9.48;;;20.60;56.10;;;;;;5075132;28;20037;-71
2022/04/15 01:32:43;;;;;;;17.92;10.07;;;20.70;56.10;;;;;;5077480;28;20105;-71
2022/04/15 01:35:12;;;;;;;19.40;10.02;;;20.70;56.10;;;;;;5080032;28;20040;-71
2022/04/15 01:37:39;;;;;;;18.00;10.30;;;20.60;55.90;;;;;;5095621;28;20068;-71
2022/04/15 01:40:08;;;;;;;24.35;11.20;;;20.70;56.00;;;;;;5094227;28;20040;-71
2022/04/15 01:42:35;;;;;;;22.40;11.18;;;20.70;56.00;;;;;;5074836;28;20047;-71
2022/04/15 01:45:02;;;;;;;22.08;11.20;;;20.70;56.00;;;;;;5075581;28;20041;-70
2022/04/15 01:47:28;;;;;;;19.63;10.00;;;20.70;56.00;;;;;;5075674;28;20040;-71
2022/04/15 01:49:55;;;;;;;20.75;10.15;;;20.60;55.80;;;;;;5076370;28;20152;-71
2022/04/15 01:52:21;;;;;;;18.73;9.73;;;20.70;55.80;;;;;;5071929;28;20037;-70
2022/04/15 01:54:47;;;;;;;21.35;10.18;;;20.70;55.80;;;;;;5057080;28;20030;-71
2022/04/15 01:57:14;;;;;;;19.08;10.30;;;20.60;55.80;;;;;;5056789;28;20043;-71
2022/04/15 01:59:41;;;;;;;20.63;10.63;;;20.60;55.90;;;;;;5057051;28;20037;-71
2022/04/15 02:02:08;;;;;;;18.83;10.68;;;20.60;55.90;;;;;;5071284;28;20041;-71
2022/04/15 02:04:34;;;;;;;20.30;10.43;;;20.50;56.10;;;;;;5076775;28;20033;-71
2022/04/15 02:07:01;;;;;;;22.08;9.95;;;20.50;56.10;;;;;;5076806;28;20045;-71
2022/04/15 02:09:27;;;;;;;16.38;9.15;;;20.60;56.20;;;;;;5077446;28;20037;-70
2022/04/15 02:11:54;;;;;;;21.17;10.45;;;20.60;56.10;;;;;;5075463;28;20040;-71
2022/04/15 02:14:21;;;;;;;21.33;9.52;;;20.60;56.20;;;;;;5076762;28;20040;-70
2022/04/15 02:16:50;;;;;;;18.88;9.95;;;20.70;56.30;;;;;;5076678;28;20041;-70
2022/04/15 02:19:16;;;;;;;18.52;9.75;;;20.50;56.10;;;;;;5076653;28;20108;-71
2022/04/15 02:21:42;;;;;;;16.95;8.82;;;20.60;56.10;;;;;;5076775;28;20487;-71
2022/04/15 02:24:08;;;;;;;20.50;10.00;;;20.60;56.20;;;;;;5058925;28;20049;-71
2022/04/15 02:26:34;;;;;;;17.67;8.25;;;20.70;56.20;;;;;;5065214;28;20041;-71
2022/04/15 02:29:01;;;;;;;17.17;8.80;;;20.60;56.10;;;;;;5076498;28;20060;-70
2022/04/15 02:31:27;;;;;;;17.60;8.90;;;20.70;56.20;;;;;;5063275;28;20033;-71
2022/04/15 02:33:53;;;;;;;17.88;8.05;;;20.70;56.10;;;;;;5067786;28;20033;-71
2022/04/15 02:36:20;;;;;;;18.33;9.45;;;20.60;56.00;;;;;;5076256;28;20044;-71
2022/04/15 02:38:46;;;;;;;22.45;8.45;;;20.50;56.10;;;;;;5075892;28;20048;-71
2022/04/15 02:41:13;;;;;;;17.20;8.48;;;20.50;56.20;;;;;;5071747;28;20116;-71
2022/04/15 02:43:40;;;;;;;17.10;8.05;;;20.50;56.40;;;;;;5075741;28;20028;-70
2022/04/15 02:46:09;;;;;;;14.50;8.27;;;20.40;56.30;;;;;;5076412;28;20048;-71
2022/04/15 02:48:35;;;;;;;13.73;8.77;;;20.50;56.40;;;;;;5076233;28;20037;-71
2022/04/15 02:51:02;;;;;;;17.58;8.77;;;20.50;56.50;;;;;;5076391;28;20084;-71
2022/04/15 02:53:30;;;;;;;19.75;8.77;;;20.50;56.60;;;;;;5079325;28;20069;-71
2022/04/15 02:55:57;;;;;;;15.68;8.68;;;20.40;56.70;;;;;;5079704;28;20044;-71
2022/04/15 02:58:26;;;;;;;17.35;8.07;;;20.40;56.70;;;;;;5080153;28;20064;-70
2022/04/15 03:00:52;;;;;;;16.48;8.52;;;20.40;56.60;;;;;;5080822;28;20067;-71
2022/04/15 03:03:18;;;;;;;18.08;7.93;;;20.40;56.70;;;;;;5079532;28;20197;-71
2022/04/15 03:05:44;;;;;;;18.63;8.70;;;20.40;56.60;;;;;;5071646;28;20048;-71
2022/04/15 03:08:10;;;;;;;17.92;8.70;;;20.30;56.70;;;;;;5072426;28;20047;-70
2022/04/15 03:10:36;;;;;;;19.95;9.48;;;20.30;56.70;;;;;;5065695;28;20052;-71
2022/04/15 03:13:03;;;;;;;20.45;9.77;;;20.30;56.70;;;;;;5074760;28;20037;-71
2022/04/15 03:15:30;;;;;;;20.38;9.52;;;20.40;56.80;;;;;;5075763;28;20041;-70
2022/04/15 03:17:56;;;;;;;19.55;9.23;;;20.30;56.80;;;;;;5089810;28;20033;-70
2022/04/15 03:20:22;;;;;;;17.13;9.68;;;20.40;56.80;;;;;;5092785;28;20048;-70
2022/04/15 03:22:48;;;;;;;14.35;9.10;;;20.40;56.80;;;;;;5079225;28;20041;-71
2022/04/15 03:25:17;;;;;;;17.65;9.23;;;20.40;56.70;;;;;;5079930;28;20028;-70
2022/04/15 03:27:44;;;;;;;23.05;9.27;;;20.40;56.70;;;;;;5075990;28;20060;-70
2022/04/15 03:30:11;;;;;;;18.45;10.60;;;20.50;56.70;;;;;;5079564;28;20040;-70
2022/04/15 03:32:51;;;;;;;15.23;9.00;;;20.40;56.60;;;;;;5079654;28;20047;-71
2022/04/15 03:35:22;;;;;;;17.95;9.07;;;20.50;56.60;;;;;;5093092;28;20034;-71
2022/04/15 03:37:52;;;;;;;20.98;9.77;;;20.50;56.60;;;;;;5099661;28;20092;-71
2022/04/15 03:40:19;;;;;;;18.60;8.90;;;20.40;56.50;;;;;;5099535;28;20051;-70
2022/04/15 03:42:54;;;;;;;19.17;9.20;;;20.40;56.50;;;;;;5072344;28;20057;-71
2022/04/15 03:45:22;;;;;;;16.65;9.10;;;20.50;56.60;;;;;;5071151;28;20056;-70
2022/04/15 03:47:54;;;;;;;20.02;10.25;;;20.50;56.70;;;;;;5079422;28;20048;-71
2022/04/15 03:50:21;;;;;;;18.30;8.73;;;20.40;56.60;;;;;;5079236;28;20091;-71
2022/04/15 03:52:48;;;;;;;16.58;9.13;;;20.40;56.70;;;;;;5082347;28;20044;-71
2022/04/15 03:55:21;;;;;;;17.25;9.35;;;20.40;56.70;;;;;;5059346;28;20051;-71
2022/04/15 03:57:48;;;;;;;18.95;9.48;;;20.30;57.00;;;;;;5069613;28;20045;-70
2022/04/15 04:00:17;;;;;;;17.58;9.48;;;20.40;57.00;;;;;;5079307;28;20056;-71
2022/04/15 04:02:49;;;;;;;21.70;9.57;;;20.30;57.00;;;;;;5077816;28;20074;-71
2022/04/15 04:05:16;;;;;;;24.02;10.35;;;20.30;57.00;;;;;;5077799;28;20052;-70
2022/04/15 04:07:43;;;;;;;15.75;9.23;;;20.30;57.00;;;;;;5078652;28;20048;-71
2022/04/15 04:10:13;;;;;;;24.85;9.65;;;20.40;57.00;;;;;;5083892;28;20072;-70
2022/04/15 04:12:40;;;;;;;20.65;10.25;;;20.40;57.00;;;;;;5064961;28;20041;-71
2022/04/15 04:15:08;;;;;;;24.95;10.02;;;20.40;57.00;;;;;;5058374;28;20037;-71
2022/04/15 04:17:34;;;;;;;24.67;12.48;;;20.40;57.00;;;;;;5057356;28;20053;-70
2022/04/15 04:20:01;;;;;;;17.55;10.82;;;20.20;57.00;;;;;;5056674;28;20041;-71
2022/04/15 04:22:29;;;;;;;23.63;11.40;;;20.30;57.20;;;;;;5074769;28;20105;-71
2022/04/15 04:24:56;;;;;;;21.13;9.77;;;20.30;57.40;;;;;;5078572;28;20122;-71
2022/04/15 04:27:22;;;;;;;21.83;10.95;;;20.20;57.50;;;;;;5076686;28;20052;-71
2022/04/15 04:29:48;;;;;;;22.63;9.48;;;20.30;57.40;;;;;;5077964;28;20048;-70
2022/04/15 04:32:15;;;;;;;24.15;9.10;;;20.20;57.20;;;;;;5075949;28;20044;-72
2022/04/15 04:34:42;;;;;;;14.95;8.07;;;20.40;57.30;;;;;;5069087;28;20048;-71
2022/04/15 04:37:08;;;;;;;8.73;5.20;;;20.50;57.00;;;;;;5077470;28;20041;-70
2022/04/15 04:39:34;;;;;;;8.05;4.45;;;20.50;49.40;;;;;;5077191;28;20045;-70
2022/04/15 04:42:02;;;;;;;10.95;3.95;;;20.50;48.20;;;;;;5072620;28;20084;-70
2022/04/15 04:44:31;;;;;;;12.73;5.80;;;20.70;46.70;;;;;;5075493;28;20067;-71
2022/04/15 04:46:59;;;;;;;17.25;5.40;;;20.80;46.00;;;;;;5075633;28;20036;-70
2022/04/15 04:49:26;;;;;;;14.32;4.68;;;21.00;45.90;;;;;;5075573;28;20046;-70
2022/04/15 04:51:53;;;;;;;12.45;5.53;;;21.00;46.30;;;;;;5074858;28;20041;-71
2022/04/15 04:54:19;;;;;;;11.00;5.30;;;21.10;49.40;;;;;;5072970;28;20090;-70
2022/04/15 04:56:46;;;;;;;18.35;7.68;;;21.30;45.50;;;;;;5075805;28;20064;-70
2022/04/15 04:59:11;;;;;;;7.80;5.45;;;21.20;42.00;;;;;;5074100;28;20041;-70
2022/04/15 05:01:37;;;;;;;13.57;6.18;;;21.30;42.60;;;;;;5075352;28;20094;-70
2022/04/15 05:04:03;;;;;;;11.80;6.40;;;21.20;41.60;;;;;;5074663;28;20075;-71
2022/04/15 05:06:30;;;;;;;18.17;6.68;;;21.30;43.20;;;;;;5072675;28;20044;-71
2022/04/15 05:08:56;;;;;;;22.77;8.98;;;21.40;44.10;;;;;;5069601;28;20045;-71
2022/04/15 05:11:22;;;;;;;29.58;10.57;;;21.60;54.70;;;;;;5068000;28;20029;-71
2022/04/15 05:13:50;;;;;;;22.27;9.75;;;21.50;61.90;;;;;;5077727;28;20045;-70
2022/04/15 05:16:17;;;;;;;23.77;10.18;;;21.60;57.70;;;;;;5093114;28;20058;-69
2022/04/15 05:18:43;;;;;;;27.55;10.23;;;21.50;60.10;;;;;;5091586;28;20051;-72
2022/04/15 05:21:09;;;;;;;25.73;9.73;;;21.50;59.90;;;;;;5083399;28;20045;-69
2022/04/15 05:23:35;;;;;;;24.80;10.13;;;21.50;58.60;;;;;;5079932;28;20083;-70
2022/04/15 05:26:02;;;;;;;21.77;10.20;;;21.60;58.70;;;;;;5088494;28;20061;-70
2022/04/15 05:28:30;;;;;;;27.42;10.45;;;21.40;58.40;;;;;;5076077;28;20040;-72
2022/04/15 05:30:56;;;;;;;18.90;9.82;;;21.40;58.40;;;;;;5079098;28;20041;-69
2022/04/15 05:33:22;;;;;;;20.98;7.93;;;21.30;58.60;;;;;;5081748;28;20042;-69
2022/04/15 05:35:49;;;;;;;18.05;7.57;;;21.30;59.00;;;;;;5093506;28;20048;-68
2022/04/15 05:38:15;;;;;;;20.17;7.95;;;21.50;58.20;;;;;;5093677;28;20068;-68
2022/04/15 05:40:41;;;;;;;14.23;8.25;;;21.50;57.00;;;;;;5090954;28;20045;-69
2022/04/15 05:43:07;;;;;;;19.38;9.05;;;21.60;55.80;;;;;;5056886;28;20049;-69
2022/04/15 05:45:34;;;;;;;19.27;9.85;;;21.70;55.00;;;;;;5077433;28;20104;-70
2022/04/15 05:48:00;;;;;;;19.38;9.45;;;21.70;55.40;;;;;;5095133;28;20064;-68
2022/04/15 05:50:26;;;;;;;25.00;9.93;;;21.80;54.80;;;;;;5088777;28;20049;-68
2022/04/15 05:52:52;;;;;;;24.52;11.50;;;21.90;54.20;;;;;;5073966;28;20045;-72
2022/04/15 05:55:18;;;;;;;20.80;11.60;;;21.80;44.60;;;;;;5068842;28;20056;-72
2022/04/15 05:57:44;;;;;;;25.95;12.20;;;21.70;49.10;;;;;;5073866;28;20040;-72
2022/04/15 06:00:11;;;;;;;30.02;11.88;;;21.50;51.20;;;;;;5072796;28;20041;-71
2022/04/15 06:02:40;;;;;;;17.50;10.88;;;21.50;52.20;;;;;;5088081;28;20051;-72
2022/04/15 06:05:08;;;;;;;22.42;11.50;;;21.50;52.60;;;;;;5067819;28;20037;-71
2022/04/15 06:07:34;;;;;;;28.08;11.98;;;21.60;52.60;;;;;;5062446;28;20074;-71
2022/04/15 06:10:00;;;;;;;23.95;12.02;;;21.60;52.60;;;;;;5074299;28;20051;-70
2022/04/15 06:12:54;;;;;;;24.10;10.75;;;21.70;53.00;;;;;;5074890;28;20044;-73
2022/04/15 06:15:31;;;;;;;22.98;11.98;;;21.60;53.40;;;;;;5070473;28;20080;-72
2022/04/15 06:17:58;;;;;;;21.80;10.65;;;21.60;53.20;;;;;;5056031;28;20044;-71
2022/04/15 06:20:24;;;;;;;19.60;8.75;;;21.70;53.50;;;;;;5055668;28;20078;-71
2022/04/15 06:22:50;;;;;;;14.90;9.02;;;21.50;53.70;;;;;;5060843;28;20036;-71
2022/04/15 06:25:17;;;;;;;14.88;6.97;;;21.60;53.70;;;;;;5074951;28;20045;-71
2022/04/15 06:27:43;;;;;;;17.45;7.28;;;21.70;54.50;;;;;;5074477;28;20032;-72
2022/04/15 06:30:09;;;;;;;14.15;7.75;;;21.70;52.20;;;;;;5084369;28;20159;-70
2022/04/15 06:32:36;;;;;;;14.45;7.97;;;21.70;53.80;;;;;;5067586;28;20040;-71
2022/04/15 06:35:04;;;;;;;8.60;4.20;;;21.80;54.50;;;;;;5068876;28;20030;-73
2022/04/15 06:37:30;;;;;;;7.40;5.20;;;21.70;47.20;;;;;;5065174;28;20037;-70
2022/04/15 06:39:56;;;;;;;17.38;5.45;;;21.80;41.20;;;;;;5057926;28;20041;-71
2022/04/15 06:42:27;;;;;;;10.20;4.65;;;22.00;40.10;;;;;;5064010;28;20064;-71
2022/04/15 06:44:54;;;;;;;7.10;5.57;;;22.00;39.20;;;;;;5066265;28;20049;-71
2022/04/15 06:47:20;;;;;;;9.30;4.75;;;22.00;38.90;;;;;;5074835;28;20033;-72
2022/04/15 06:49:47;;;;;;;11.60;5.40;;;22.00;37.90;;;;;;5075442;28;20060;-72
2022/04/15 06:52:14;;;;;;;8.68;4.75;;;22.00;38.50;;;;;;5075308;28;20058;-73
2022/04/15 06:54:41;;;;;;;11.95;4.65;;;22.10;39.30;;;;;;5067426;28;20128;-73
2022/04/15 06:57:08;;;;;;;23.15;7.22;;;22.40;41.70;;;;;;5064957;28;20037;-72
2022/04/15 06:59:34;;;;;;;53.30;14.55;;;22.40;44.40;;;;;;5072160;28;20079;-72
2022/04/15 07:02:01;;;;;;;33.22;11.25;;;22.80;46.70;;;;;;5062826;28;20076;-72
2022/04/15 07:04:28;;;;;;;41.00;11.88;;;22.80;47.50;;;;;;5074230;28;20045;-72
2022/04/15 07:06:55;;;;;;;18.27;7.15;;;22.80;44.10;;;;;;5072202;28;20072;-71
2022/04/15 07:09:21;;;;;;;25.73;9.23;;;23.00;45.90;;;;;;5077386;28;20040;-71
2022/04/15 07:11:48;;;;;;;35.25;11.38;;;23.00;43.90;;;;;;5076288;28;20052;-71
2022/04/15 07:14:15;;;;;;;25.80;10.02;;;22.90;44.30;;;;;;5067804;28;20045;-71
2022/04/15 07:16:41;;;;;;;23.83;8.63;;;23.10;44.20;;;;;;5070581;28;20104;-69
2022/04/15 07:19:07;;;;;;;14.27;5.60;;;23.00;40.60;;;;;;5059830;28;20048;-73
2022/04/15 07:21:38;;;;;;;14.07;5.88;;;23.00;39.70;;;;;;5067865;28;20044;-70
2022/04/15 07:24:05;;;;;;;9.23;5.07;;;23.00;38.60;;;;;;5076651;28;20036;-70
2022/04/15 07:26:31;;;;;;;5.82;4.15;;;22.90;38.20;;;;;;5078477;28;20107;-70
2022/04/15 07:28:58;;;;;;;7.45;2.38;;;23.00;48.80;;;;;;5069609;28;20068;-69
2022/04/15 07:31:24;;;;;;;3.83;1.85;;;23.00;50.70;;;;;;5065645;28;20052;-69
2022/04/15 07:33:51;;;;;;;5.22;2.35;;;23.00;50.90;;;;;;5075060;28;20367;-70
2022/04/15 07:39:07;;;;;;;8.40;5.13;;;23.00;47.30;;;;;;5055641;28;20053;-70
2022/04/15 07:41:36;;;;;;;8.27;5.18;;;23.00;48.60;;;;;;5058690;28;20053;-68
2022/04/15 07:44:06;;;;;;;15.55;6.45;;;23.00;47.10;;;;;;5063355;28;20044;-69
2022/04/15 07:46:33;;;;;;;15.45;5.63;;;23.00;48.30;;;;;;5078671;28;20037;-71
2022/04/15 07:49:00;;;;;;;13.18;6.55;;;22.80;46.60;;;;;;5060466;28;20040;-69
2022/04/15 07:51:26;;;;;;;12.68;5.68;;;22.80;47.80;;;;;;5078012;28;20039;-69
2022/04/15 07:53:52;;;;;;;13.88;5.63;;;22.80;45.10;;;;;;5077250;28;20043;-70
2022/04/15 07:56:19;;;;;;;13.00;5.30;;;23.00;45.60;;;;;;5077974;28;20048;-68
2022/04/15 07:58:45;;;;;;;10.20;6.35;;;22.70;44.80;;;;;;5071018;28;20034;-70
2022/04/15 08:01:12;;;;;;;14.63;6.53;;;22.70;47.70;;;;;;5077899;28;20140;-69
2022/04/15 08:03:39;;;;;;;16.70;5.50;;;22.70;43.90;;;;;;5067237;28;20046;-72
2022/04/15 08:06:06;;;;;;;13.35;6.82;;;22.70;47.50;;;;;;5077273;28;20041;-70
2022/04/15 08:08:32;;;;;;;10.80;5.40;;;22.70;46.90;;;;;;5072028;28;20036;-70
2022/04/15 08:10:58;;;;;;;10.20;5.35;;;22.70;46.60;;;;;;5073624;28;20045;-70
2022/04/15 08:13:24;;;;;;;11.82;4.97;;;22.70;47.00;;;;;;5074712;28;20037;-70
2022/04/15 08:15:53;;;;;;;11.10;5.97;;;22.80;48.20;;;;;;5088260;28;20037;-69
2022/04/15 08:18:20;;;;;;;9.23;5.05;;;22.70;50.50;;;;;;5071207;28;20055;-69
2022/04/15 08:20:47;;;;;;;11.30;5.97;;;22.70;48.40;;;;;;5057504;28;20042;-70
2022/04/15 08:23:13;;;;;;;7.88;4.88;;;22.70;48.00;;;;;;5057331;28;20061;-70
2022/04/15 08:25:42;;;;;;;10.13;5.57;;;22.70;46.30;;;;;;5057145;28;20045;-70
2022/04/15 08:28:08;;;;;;;10.38;5.30;;;22.70;49.00;;;;;;5070181;28;20047;-69
2022/04/15 08:30:34;;;;;;;10.70;5.72;;;22.70;47.60;;;;;;5077439;28;20052;-69
2022/04/15 08:33:02;;;;;;;8.80;4.85;;;22.90;46.10;;;;;;5076328;28;20037;-70
2022/04/15 08:35:29;;;;;;;11.15;5.25;;;22.70;45.70;;;;;;5077757;28;20049;-70
2022/04/15 08:37:55;;;;;;;9.77;5.07;;;22.80;49.70;;;;;;5074557;28;20084;-70
2022/04/15 08:40:21;;;;;;;10.32;5.03;;;22.70;49.20;;;;;;5077223;28;20049;-70
2022/04/15 08:42:47;;;;;;;15.25;4.72;;;22.80;49.50;;;;;;5058279;28;20048;-70
2022/04/15 08:45:14;;;;;;;10.07;5.07;;;22.80;48.40;;;;;;5058076;28;20033;-70
2022/04/15 08:47:41;;;;;;;8.77;4.40;;;22.80;47.30;;;;;;5063129;28;20043;-71
2022/04/15 08:50:13;;;;;;;12.07;4.40;;;22.80;48.90;;;;;;5081034;28;20051;-70
2022/04/15 08:52:39;;;;;;;11.03;5.03;;;22.90;48.90;;;;;;5097631;28;20032;-69
2022/04/15 08:55:06;;;;;;;6.65;3.88;;;22.80;49.50;;;;;;5097616;28;20281;-69
2022/04/15 08:57:32;;;;;;;12.75;4.78;;;22.90;47.00;;;;;;5081396;28;20025;-68
2022/04/15 08:59:59;;;;;;;7.07;4.45;;;22.90;41.50;;;;;;5077334;28;20041;-69
2022/04/15 09:02:30;;;;;;;6.47;3.60;;;23.00;39.10;;;;;;5074798;28;20048;-69
2022/04/15 09:04:57;;;;;;;9.02;3.83;;;23.00;38.00;;;;;;5059305;28;20044;-69
2022/04/15 09:07:30;;;;;;;7.63;3.40;;;23.00;37.70;;;;;;5057282;28;20049;-70
2022/04/15 09:09:58;;;;;;;6.65;3.40;;;23.10;38.10;;;;;;5057041;28;20052;-70
2022/04/15 09:12:28;;;;;;;9.90;4.00;;;23.10;40.00;;;;;;5067516;28;20059;-69
2022/04/15 09:15:15;;;;;;;5.85;4.32;;;23.10;42.80;;;;;;5073185;28;20044;-69
2022/04/15 09:17:49;;;;;;;18.50;5.15;;;23.20;39.90;;;;;;5057088;28;20044;-69
2022/04/15 09:20:16;;;;;;;6.18;3.50;;;23.20;43.90;;;;;;5056841;28;20034;-69
2022/04/15 09:22:43;;;;;;;15.55;4.22;;;23.20;42.40;;;;;;5055392;28;20068;-70
2022/04/15 09:25:11;;;;;;;7.28;3.75;;;23.30;40.40;;;;;;5069259;28;20104;-70
2022/04/15 09:27:38;;;;;;;7.63;3.20;;;23.20;35.70;;;;;;5064598;28;20056;-71
2022/04/15 09:30:05;;;;;;;7.68;3.88;;;23.20;35.80;;;;;;5056519;28;20041;-68
2022/04/15 09:32:31;;;;;;;11.88;3.88;;;23.10;36.00;;;;;;5080085;28;20033;-68
2022/04/15 09:35:06;;;;;;;6.88;4.38;;;23.20;36.60;;;;;;5075757;28;20049;-69
2022/04/15 09:37:42;;;;;;;12.80;3.70;;;23.10;35.40;;;;;;5076711;28;20075;-69
2022/04/15 09:40:18;;;;;;;9.00;3.75;;;23.10;38.00;;;;;;5072574;28;20128;-69
2022/04/15 09:42:50;;;;;;;14.07;5.13;;;23.10;41.90;;;;;;5057621;28;20044;-69
2022/04/15 09:45:23;;;;;;;6.13;3.50;;;23.30;41.60;;;;;;5080035;28;20042;-67
2022/04/15 09:47:59;;;;;;;11.75;3.72;;;23.50;39.20;;;;;;5066395;28;20036;-69
2022/04/15 09:50:27;;;;;;;13.75;6.22;;;23.30;36.80;;;;;;5083898;28;20132;-71
2022/04/15 09:52:54;;;;;;;8.30;3.35;;;23.50;48.70;;;;;;5065679;28;20041;-71
2022/04/15 09:55:24;;;;;;;5.88;3.10;;;23.90;47.90;;;;;;5058543;28;20048;-70
2022/04/15 09:57:51;;;;;;;9.57;4.07;;;24.00;42.70;;;;;;5076050;28;20033;-70
2022/04/15 10:00:18;;;;;;;6.35;3.72;;;24.00;42.50;;;;;;5076247;28;20037;-70
2022/04/15 10:02:46;;;;;;;7.82;3.55;;;24.00;36.40;;;;;;5068871;28;20080;-70
2022/04/15 10:05:15;;;;;;;8.80;3.70;;;23.80;35.90;;;;;;5056263;28;20052;-70
2022/04/15 10:07:41;;;;;;;6.97;3.58;;;23.60;46.60;;;;;;5058096;28;20041;-70
2022/04/15 10:10:09;;;;;;;10.65;3.97;;;23.70;48.00;;;;;;5074959;28;20079;-71
2022/04/15 10:12:39;;;;;;;3.72;2.80;;;23.80;48.30;;;;;;5056417;28;20037;-71
2022/04/15 10:15:10;;;;;;;7.20;3.50;;;24.10;47.80;;;;;;5056090;28;20060;-71
2022/04/15 10:17:40;;;;;;;10.40;4.22;;;24.50;47.20;;;;;;5055968;28;20490;-70
2022/04/15 10:20:08;;;;;;;7.13;3.85;;;24.50;46.90;;;;;;5056103;28;20044;-71
2022/04/15 10:22:37;;;;;;;5.80;2.85;;;24.50;46.90;;;;;;5063952;28;20041;-71
2022/04/15 10:25:08;;;;;;;6.28;4.05;;;24.50;47.20;;;;;;5068078;28;20041;-70
2022/04/15 10:27:34;;;;;;;11.80;4.20;;;24.50;47.40;;;;;;5073886;28;20119;-69
2022/04/15 10:30:21;;;;;;;9.30;3.80;;;24.40;47.70;;;;;;5067882;28;20041;-71
2022/04/15 10:32:57;;;;;;;9.93;4.32;;;24.30;47.40;;;;;;5055783;28;20041;-71
2022/04/15 10:35:31;;;;;;;4.57;2.75;;;24.30;48.30;;;;;;5071244;28;20045;-71
2022/04/15 10:38:02;;;;;;;7.10;3.53;;;24.40;48.40;;;;;;5054774;28;20041;-70
2022/04/15 10:40:33;;;;;;;5.00;3.47;;;24.20;48.50;;;;;;5072270;28;20081;-69
2022/04/15 10:43:04;;;;;;;10.30;3.47;;;24.10;49.40;;;;;;5075772;28;20060;-70
2022/04/15 10:45:36;;;;;;;6.85;3.50;;;24.20;49.80;;;;;;5058828;28;20136;-70
2022/04/15 10:48:04;;;;;;;9.70;4.00;;;24.00;49.80;;;;;;5055890;28;20037;-71
2022/04/15 10:50:33;;;;;;;10.77;4.10;;;24.10;50.00;;;;;;5067415;28;20084;-71
2022/04/15 10:53:27;;;;;;;4.80;3.20;;;24.20;49.80;;;;;;5074196;28;20041;-71
2022/04/15 10:56:06;;;;;;;8.95;3.78;;;24.10;51.70;;;;;;5059418;28;20124;-71
2022/04/15 10:58:32;;;;;;;5.68;3.90;;;24.00;51.30;;;;;;5073537;28;20036;-72
2022/04/15 11:01:18;;;;;;;6.25;4.10;;;24.10;51.20;;;;;;5075092;28;20068;-71
2022/04/15 11:03:56;;;;;;;6.13;2.75;;;24.00;50.80;;;;;;5072919;28;20067;-71
2022/04/15 11:06:26;;;;;;;6.82;4.00;;;24.10;50.80;;;;;;5055293;28;20037;-71
2022/04/15 11:08:53;;;;;;;9.55;3.40;;;24.00;46.30;;;;;;5055129;28;20068;-71
2022/04/15 11:11:36;;;;;;;7.47;3.28;;;24.10;49.20;;;;;;5061827;28;20037;-71
2022/04/15 11:14:04;;;;;;;6.90;3.67;;;24.10;49.80;;;;;;5076114;28;20044;-72
2022/04/15 11:16:58;;;;;;;4.75;2.90;;;24.00;49.80;;;;;;5079279;28;20032;-71
2022/04/15 11:19:26;;;;;;;2.25;1.27;;;23.90;49.60;;;;;;5076216;28;20033;-72
2022/04/15 11:21:54;;;;;;;2.78;1.58;;;24.00;49.70;;;;;;5076127;28;20041;-71
2022/04/15 11:24:25;;;;;;;0.90;0.88;;;24.10;49.50;;;;;;5067930;28;20037;-71
2022/04/15 11:27:05;;;;;;;8.45;2.40;;;24.00;49.30;;;;;;5075613;28;20045;-71
2022/04/15 11:29:35;;;;;;;2.63;2.25;;;24.00;49.10;;;;;;5079275;28;20055;-71
2022/04/15 11:32:05;;;;;;;8.30;2.40;;;23.90;49.00;;;;;;5077590;28;20064;-71
2022/04/15 11:34:32;;;;;;;3.20;2.00;;;23.90;48.80;;;;;;5078198;28;20044;-71
2022/04/15 11:37:06;;;;;;;2.92;1.75;;;23.80;48.30;;;;;;5065244;28;20038;-71
2022/04/15 11:39:35;;;;;;;2.30;1.60;;;23.80;48.20;;;;;;5057848;28;20041;-71
2022/04/15 11:42:08;;;;;;;5.07;2.72;;;23.80;48.10;;;;;;5070012;28;20072;-71
2022/04/15 11:44:36;;;;;;;6.13;2.35;;;23.80;48.20;;;;;;5078431;28;20037;-72
2022/04/15 11:47:23;;;;;;;3.55;1.63;;;23.80;46.70;;;;;;5078848;28;20041;-72
2022/04/15 11:49:51;;;;;;;3.47;2.15;;;23.60;47.40;;;;;;5079045;28;20051;-71
2022/04/15 11:52:26;;;;;;;1.33;1.23;;;23.60;46.70;;;;;;5078852;28;20040;-71
2022/04/15 11:54:53;;;;;;;2.35;2.00;;;23.50;46.70;;;;;;5075734;28;20032;-71
2022/04/15 11:57:19;;;;;;;5.70;2.05;;;23.60;46.90;;;;;;5078440;28;20052;-71
2022/04/15 11:59:47;;;;;;;3.78;1.63;;;23.60;44.50;;;;;;5078804;28;20040;-71
2022/04/15 12:02:14;;;;;;;3.30;1.67;;;23.40;46.00;;;;;;5078564;28;20037;-72
2022/04/15 12:04:54;;;;;;;10.48;1.70;;;23.50;47.20;;;;;;5078659;28;20074;-71
2022/04/15 12:07:21;;;;;;;4.63;2.40;;;23.50;47.20;;;;;;5078590;28;20963;-71
2022/04/15 12:09:49;;;;;;;3.13;2.15;;;23.50;47.40;;;;;;5076266;28;20049;-72
2022/04/15 12:12:16;;;;;;;3.90;1.98;;;23.40;47.00;;;;;;5063360;28;20040;-72
2022/04/15 12:14:43;;;;;;;5.25;1.95;;;23.30;47.20;;;;;;5078375;28;20096;-72
2022/04/15 12:17:11;;;;;;;4.97;2.38;;;23.40;46.70;;;;;;5076525;28;20048;-72
2022/04/15 12:19:38;;;;;;;2.15;1.42;;;23.30;47.00;;;;;;5076250;28;20072;-71
2022/04/15 12:22:06;;;;;;;1.80;1.70;;;23.40;46.80;;;;;;5076649;28;20048;-72
2022/04/15 12:24:34;;;;;;;2.53;1.85;;;23.40;46.70;;;;;;5057589;28;20056;-71
2022/04/15 12:27:01;;;;;;;3.75;2.40;;;23.40;46.50;;;;;;5075008;28;20067;-71
2022/04/15 12:29:47;;;;;;;5.25;2.22;;;23.30;45.40;;;;;;5077400;28;20108;-72
2022/04/15 12:32:34;;;;;;;4.18;1.70;;;23.30;46.40;;;;;;5077679;28;20094;-72
2022/04/15 12:35:01;;;;;;;2.50;1.85;;;23.30;46.40;;;;;;5078124;28;20037;-72
2022/04/15 12:37:43;;;;;;;5.15;1.83;;;23.30;46.30;;;;;;5077886;28;20049;-71
2022/04/15 12:40:30;;;;;;;5.85;1.58;;;23.40;46.20;;;;;;5066144;28;20046;-71
2022/04/15 12:43:13;;;;;;;3.35;1.70;;;23.40;45.10;;;;;;5077902;28;20045;-72
2022/04/15 12:45:50;;;;;;;2.20;1.40;;;23.20;46.00;;;;;;5077610;28;20041;-72
2022/04/15 12:48:16;;;;;;;3.35;1.92;;;23.20;45.80;;;;;;5068880;28;20116;-71